Time;durP1;ratioP1;P1;durP2;ratioP2;P2;SDS_P1;SDS_P2;PMS_P1;PMS_P2;Temp;Humidity;BMP_temperature;BMP_pressure;BME280_temperature;BME280_humidity;BME280_pressure;Samples;Min_cycle;Max_cycle;Signal;HPM_P1;HPM_P2
2022/12/31 00:01:20;;;;;;;0.60;0.38;;;13.90;99.90;;;;;;5094961;28;20031;-73
2022/12/31 00:03:46;;;;;;;0.22;0.20;;;13.90;99.90;;;;;;5095430;28;20023;-73
2022/12/31 00:06:24;;;;;;;0.30;0.30;;;14.00;99.90;;;;;;5094984;28;20074;-74
2022/12/31 00:08:51;;;;;;;0.45;0.32;;;13.90;99.90;;;;;;5095363;28;20027;-73
2022/12/31 00:11:17;;;;;;;1.48;0.40;;;13.90;99.90;;;;;;5113011;28;20472;-72
2022/12/31 00:13:45;;;;;;;0.45;0.22;;;13.90;99.90;;;;;;5113617;28;20034;-72
2022/12/31 00:16:24;;;;;;;0.20;0.20;;;13.90;99.90;;;;;;5112871;28;20043;-77
2022/12/31 00:18:52;;;;;;;0.20;0.20;;;14.00;99.90;;;;;;5094901;28;20042;-73
2022/12/31 00:21:18;;;;;;;0.82;0.30;;;14.00;99.90;;;;;;5094653;28;20110;-73
2022/12/31 00:23:44;;;;;;;0.30;0.30;;;14.10;99.90;;;;;;5095187;28;20491;-72
2022/12/31 00:26:13;;;;;;;0.47;0.30;;;14.10;99.90;;;;;;5113336;28;20028;-72
2022/12/31 00:28:39;;;;;;;0.38;0.20;;;14.10;99.90;;;;;;5094955;28;20076;-73
2022/12/31 00:31:11;;;;;;;0.55;0.30;;;14.10;99.90;;;;;;5113002;28;20050;-72
2022/12/31 00:33:37;;;;;;;0.25;0.25;;;14.10;99.90;;;;;;5095325;28;20039;-73
2022/12/31 00:36:09;;;;;;;0.50;0.20;;;14.10;99.90;;;;;;5094918;28;20023;-73
2022/12/31 00:38:36;;;;;;;1.90;0.40;;;14.00;99.90;;;;;;5112724;28;20085;-72
2022/12/31 00:41:02;;;;;;;0.60;0.30;;;14.00;99.90;;;;;;5095118;28;20032;-72
2022/12/31 00:43:27;;;;;;;1.60;0.30;;;14.00;99.90;;;;;;5094656;28;20023;-73
2022/12/31 00:45:53;;;;;;;1.05;0.43;;;14.00;99.90;;;;;;5096104;28;20028;-73
2022/12/31 00:48:19;;;;;;;1.17;0.45;;;14.00;99.90;;;;;;5098724;28;20055;-73
2022/12/31 00:50:45;;;;;;;0.20;0.20;;;14.00;99.90;;;;;;5098948;28;20114;-73
2022/12/31 00:53:10;;;;;;;0.30;0.30;;;14.00;99.90;;;;;;5099082;28;20023;-72
2022/12/31 00:55:36;;;;;;;1.70;0.20;;;14.00;99.90;;;;;;5098503;28;20024;-73
2022/12/31 00:58:01;;;;;;;0.70;0.40;;;14.10;99.90;;;;;;5098548;28;20058;-73
2022/12/31 01:00:27;;;;;;;0.75;0.20;;;14.10;99.90;;;;;;5116669;28;20081;-73
2022/12/31 01:02:52;;;;;;;0.43;0.20;;;14.20;99.90;;;;;;5098752;28;20485;-73
2022/12/31 01:05:18;;;;;;;0.40;0.30;;;14.20;99.90;;;;;;5116557;28;20056;-73
2022/12/31 01:07:44;;;;;;;0.70;0.70;;;14.20;99.90;;;;;;5098886;28;20484;-73
2022/12/31 01:10:09;;;;;;;1.50;0.30;;;14.30;99.90;;;;;;5098659;28;20111;-73
2022/12/31 01:12:35;;;;;;;0.75;0.30;;;14.30;99.90;;;;;;5116469;28;20053;-73
2022/12/31 01:15:00;;;;;;;2.80;0.32;;;14.30;99.90;;;;;;5098563;28;20047;-73
2022/12/31 01:17:26;;;;;;;1.75;0.60;;;14.30;99.90;;;;;;5116496;28;20055;-73
2022/12/31 01:19:52;;;;;;;0.70;0.40;;;14.40;99.90;;;;;;5098671;28;20404;-72
2022/12/31 01:22:18;;;;;;;0.43;0.22;;;14.40;99.90;;;;;;5097960;28;20024;-74
2022/12/31 01:24:43;;;;;;;0.85;0.45;;;14.40;99.90;;;;;;5098684;28;20024;-73
2022/12/31 01:27:09;;;;;;;2.25;0.68;;;14.40;99.90;;;;;;5116420;28;20031;-72
2022/12/31 01:29:34;;;;;;;1.13;0.40;;;14.40;99.90;;;;;;5116157;28;20298;-73
2022/12/31 01:32:00;;;;;;;0.57;0.40;;;14.40;99.90;;;;;;5116559;28;20028;-73
2022/12/31 01:34:26;;;;;;;0.63;0.30;;;14.40;99.90;;;;;;5116387;28;20058;-73
2022/12/31 01:36:51;;;;;;;0.45;0.30;;;14.40;99.90;;;;;;5098131;28;20119;-73
2022/12/31 01:39:17;;;;;;;1.08;0.35;;;14.40;99.90;;;;;;5097767;28;20076;-74
2022/12/31 01:41:45;;;;;;;2.35;0.45;;;14.50;99.90;;;;;;5116100;28;20036;-73
2022/12/31 01:44:10;;;;;;;1.48;0.40;;;14.60;99.90;;;;;;5098092;28;20032;-73
2022/12/31 01:46:41;;;;;;;0.30;0.30;;;14.60;99.90;;;;;;5097507;28;20366;-73
2022/12/31 01:49:22;;;;;;;0.45;0.40;;;14.60;99.90;;;;;;5098118;28;20038;-73
2022/12/31 01:51:56;;;;;;;1.38;0.40;;;14.60;99.90;;;;;;5098157;28;20058;-73
2022/12/31 01:54:25;;;;;;;0.90;0.30;;;14.70;99.90;;;;;;5117704;28;20115;-73
2022/12/31 01:56:52;;;;;;;0.98;0.30;;;14.60;99.90;;;;;;5097476;28;20123;-73
2022/12/31 01:59:20;;;;;;;1.02;0.30;;;14.70;99.90;;;;;;5096767;28;20089;-74
2022/12/31 02:01:47;;;;;;;1.05;0.40;;;14.70;99.90;;;;;;5115732;28;20425;-73
2022/12/31 02:04:15;;;;;;;0.73;0.43;;;14.70;99.90;;;;;;5097886;28;20082;-73
2022/12/31 02:06:46;;;;;;;1.08;0.50;;;14.70;99.90;;;;;;5097179;28;20564;-73
2022/12/31 02:09:12;;;;;;;;;;;14.80;99.90;;;;;;5098167;28;20392;-73
2022/12/31 02:11:38;;;;;;;1.15;0.40;;;14.90;99.90;;;;;;5097171;28;19907;-73
2022/12/31 02:14:11;;;;;;;1.63;0.50;;;15.00;99.90;;;;;;5097505;28;20020;-72
2022/12/31 02:16:44;;;;;;;3.30;0.40;;;15.00;99.90;;;;;;5096677;28;20059;-73
2022/12/31 02:19:41;;;;;;;2.53;0.40;;;15.10;99.90;;;;;;5097461;28;20028;-72
2022/12/31 02:22:23;;;;;;;1.30;0.65;;;15.00;99.90;;;;;;5097411;28;20512;-73
2022/12/31 02:24:51;;;;;;;0.47;0.20;;;15.10;99.90;;;;;;5097377;28;20072;-73
2022/12/31 02:27:32;;;;;;;0.35;0.20;;;15.20;99.90;;;;;;5097348;28;20085;-73
2022/12/31 02:30:15;;;;;;;0.40;0.30;;;15.20;99.90;;;;;;5097254;28;20477;-73
2022/12/31 02:33:02;;;;;;;0.55;0.38;;;15.30;99.90;;;;;;5096488;28;20050;-73
2022/12/31 02:35:55;;;;;;;0.20;0.20;;;15.40;99.90;;;;;;5096607;28;20031;-73
2022/12/31 02:38:31;;;;;;;0.43;0.30;;;15.30;99.90;;;;;;5114863;28;20461;-73
2022/12/31 02:40:58;;;;;;;1.85;0.32;;;15.40;99.90;;;;;;5115322;28;20106;-73
2022/12/31 02:43:24;;;;;;;3.72;0.50;;;15.50;99.90;;;;;;5096437;28;20027;-73
2022/12/31 02:46:11;;;;;;;2.03;0.50;;;15.40;99.90;;;;;;5115260;28;20032;-73
2022/12/31 02:48:47;;;;;;;0.85;0.40;;;15.40;99.90;;;;;;5114316;28;20054;-73
2022/12/31 02:51:34;;;;;;;1.75;0.32;;;15.40;99.90;;;;;;5096957;28;20073;-72
2022/12/31 02:54:12;;;;;;;0.55;0.30;;;15.40;99.90;;;;;;5115257;28;20032;-73
2022/12/31 02:56:52;;;;;;;1.40;0.68;;;15.40;99.90;;;;;;5095929;28;20028;-73
2022/12/31 03:02:18;;;;;;;1.67;0.45;;;15.50;99.90;;;;;;5114945;28;20042;-72
2022/12/31 03:04:56;;;;;;;0.28;0.20;;;15.50;99.90;;;;;;5114404;28;20026;-73
2022/12/31 03:07:23;;;;;;;0.50;0.43;;;15.50;99.90;;;;;;5096082;28;20161;-75
2022/12/31 03:09:49;;;;;;;0.63;0.30;;;15.50;99.90;;;;;;5114470;28;20023;-73
2022/12/31 03:15:05;;;;;;;1.33;0.30;;;15.50;99.90;;;;;;5114639;28;20042;-72
2022/12/31 03:17:31;;;;;;;0.80;0.30;;;15.40;99.90;;;;;;5113708;28;20071;-73
2022/12/31 03:22:42;;;;;;;0.25;0.25;;;15.50;99.90;;;;;;5114081;28;20110;-73
2022/12/31 03:28:22;;;;;;;1.05;0.30;;;15.40;99.90;;;;;;5051236;28;20048;-73
2022/12/31 03:30:51;;;;;;;1.23;0.40;;;15.40;99.90;;;;;;5034570;28;20037;-73
2022/12/31 03:33:16;;;;;;;2.17;0.43;;;15.40;99.90;;;;;;5034644;28;20033;-73
2022/12/31 03:35:44;;;;;;;0.95;0.30;;;15.50;99.90;;;;;;5033957;28;20040;-73
2022/12/31 03:38:10;;;;;;;0.90;0.40;;;15.50;99.90;;;;;;5051018;28;20414;-73
2022/12/31 03:40:38;;;;;;;0.68;0.32;;;15.50;99.90;;;;;;5050784;28;20041;-73
2022/12/31 03:43:04;;;;;;;0.88;0.30;;;15.50;99.90;;;;;;5034454;28;20021;-73
2022/12/31 03:45:30;;;;;;;0.30;0.30;;;15.50;99.90;;;;;;5050550;28;20040;-73
2022/12/31 03:47:55;;;;;;;0.95;0.40;;;15.60;99.90;;;;;;5051197;28;20033;-73
2022/12/31 03:50:21;;;;;;;0.50;0.30;;;15.60;99.90;;;;;;5050936;28;20025;-72
2022/12/31 03:52:47;;;;;;;0.70;0.32;;;15.60;99.90;;;;;;5033690;28;20036;-73
2022/12/31 03:55:13;;;;;;;0.20;0.10;;;15.50;99.90;;;;;;5034114;28;20031;-73
2022/12/31 03:57:39;;;;;;;1.95;0.40;;;15.60;99.90;;;;;;5033527;28;20056;-73
2022/12/31 04:00:07;;;;;;;0.88;0.32;;;15.60;99.90;;;;;;5108870;28;20040;-73
2022/12/31 04:02:33;;;;;;;0.75;0.30;;;15.60;99.90;;;;;;5112752;28;20414;-73
2022/12/31 04:04:59;;;;;;;0.57;0.30;;;15.60;99.90;;;;;;5113688;28;20103;-74
2022/12/31 04:07:24;;;;;;;0.47;0.30;;;15.60;99.90;;;;;;5113174;28;20034;-77
2022/12/31 04:09:50;;;;;;;1.10;0.40;;;15.60;99.90;;;;;;5095583;28;20037;-72
2022/12/31 04:12:15;;;;;;;1.23;0.20;;;15.60;99.90;;;;;;5095460;28;20022;-73
2022/12/31 04:14:41;;;;;;;0.30;0.30;;;15.70;99.90;;;;;;5094889;28;20100;-73
2022/12/31 04:17:07;;;;;;;0.95;0.38;;;15.70;99.90;;;;;;5094942;28;20438;-73
2022/12/31 04:19:32;;;;;;;0.95;0.30;;;15.70;99.90;;;;;;5094419;28;20052;-73
2022/12/31 04:21:58;;;;;;;0.52;0.30;;;15.70;99.90;;;;;;5094831;28;20028;-73
2022/12/31 04:24:24;;;;;;;0.30;0.30;;;15.70;99.90;;;;;;5095111;28;20476;-73
2022/12/31 04:26:49;;;;;;;0.73;0.30;;;15.60;99.90;;;;;;5112745;28;20039;-73
2022/12/31 04:29:15;;;;;;;0.55;0.30;;;15.70;99.90;;;;;;5113342;28;20036;-73
2022/12/31 04:31:40;;;;;;;1.50;0.30;;;15.60;99.90;;;;;;5112570;28;20461;-73
2022/12/31 04:34:06;;;;;;;0.80;0.40;;;15.60;99.90;;;;;;5113319;28;20111;-73
2022/12/31 04:36:32;;;;;;;0.50;0.30;;;15.70;99.90;;;;;;5112768;28;20434;-73
2022/12/31 04:38:58;;;;;;;1.50;0.30;;;15.70;99.90;;;;;;5094938;28;20055;-73
2022/12/31 04:41:25;;;;;;;0.52;0.30;;;15.70;99.90;;;;;;5094958;28;20063;-73
2022/12/31 04:43:56;;;;;;;0.75;0.30;;;15.70;99.90;;;;;;5094378;28;20052;-73
2022/12/31 04:46:28;;;;;;;0.30;0.30;;;15.70;99.90;;;;;;5094578;28;20024;-73
2022/12/31 04:48:54;;;;;;;0.82;0.25;;;15.70;99.90;;;;;;5113449;28;20031;-72
2022/12/31 04:51:20;;;;;;;0.57;0.30;;;15.70;99.90;;;;;;5113183;28;20039;-72
2022/12/31 04:53:47;;;;;;;0.57;0.45;;;15.80;99.90;;;;;;5094404;28;20114;-72
2022/12/31 04:56:12;;;;;;;0.55;0.30;;;15.70;99.90;;;;;;5094846;28;20499;-72
2022/12/31 04:58:38;;;;;;;0.43;0.35;;;15.70;99.90;;;;;;5112277;28;20059;-73
2022/12/31 05:01:04;;;;;;;0.85;0.32;;;15.80;99.90;;;;;;5094785;28;20065;-73
2022/12/31 05:03:30;;;;;;;1.08;0.47;;;15.80;99.90;;;;;;5094245;28;20031;-73
2022/12/31 05:06:01;;;;;;;0.63;0.40;;;15.70;99.90;;;;;;5094734;28;20031;-73
2022/12/31 05:08:28;;;;;;;1.77;0.50;;;15.70;99.90;;;;;;5094721;28;20055;-73
2022/12/31 05:10:53;;;;;;;0.70;0.40;;;15.80;99.90;;;;;;5112940;28;20034;-73
2022/12/31 05:13:19;;;;;;;3.58;0.50;;;15.80;99.90;;;;;;5112740;28;20027;-73
2022/12/31 05:15:45;;;;;;;1.17;0.40;;;15.80;99.90;;;;;;5094033;28;20055;-73
2022/12/31 05:18:11;;;;;;;0.77;0.45;;;15.80;99.90;;;;;;5094837;28;20028;-73
2022/12/31 05:20:37;;;;;;;1.17;0.47;;;15.80;99.90;;;;;;5094096;28;20035;-73
2022/12/31 05:23:02;;;;;;;0.55;0.30;;;15.80;99.90;;;;;;5094550;28;20023;-73
2022/12/31 05:25:28;;;;;;;2.17;0.50;;;15.90;99.90;;;;;;5112610;28;20476;-73
2022/12/31 05:27:54;;;;;;;0.57;0.25;;;15.90;99.90;;;;;;5094218;28;20051;-73
2022/12/31 05:30:20;;;;;;;0.30;0.30;;;15.90;99.90;;;;;;5112787;28;20098;-73
2022/12/31 05:32:46;;;;;;;0.98;0.40;;;15.90;99.90;;;;;;5114777;28;20028;-73
2022/12/31 05:35:12;;;;;;;0.88;0.25;;;15.90;99.90;;;;;;5116594;28;20031;-72
2022/12/31 05:37:38;;;;;;;0.30;0.30;;;15.90;99.90;;;;;;5097667;28;20023;-73
2022/12/31 05:40:05;;;;;;;0.43;0.30;;;15.90;99.90;;;;;;5098147;28;20024;-73
2022/12/31 05:42:30;;;;;;;0.55;0.30;;;15.90;99.90;;;;;;5097762;28;20030;-77
2022/12/31 05:44:56;;;;;;;4.03;0.50;;;15.90;99.90;;;;;;5098066;28;20384;-73
2022/12/31 05:47:22;;;;;;;0.20;0.20;;;15.90;99.90;;;;;;5098147;28;20031;-73
2022/12/31 05:49:47;;;;;;;0.75;0.30;;;15.90;99.90;;;;;;5097543;28;20035;-73
2022/12/31 05:52:13;;;;;;;0.35;0.25;;;15.90;99.90;;;;;;5097931;28;20035;-73
2022/12/31 05:54:39;;;;;;;0.20;0.20;;;15.90;99.90;;;;;;5115730;28;20020;-73
2022/12/31 05:57:05;;;;;;;0.73;0.38;;;15.90;99.90;;;;;;5097739;28;20373;-73
2022/12/31 05:59:31;;;;;;;1.83;0.50;;;15.90;99.90;;;;;;5097765;28;20362;-73
2022/12/31 06:01:56;;;;;;;0.40;0.40;;;15.80;99.90;;;;;;5097915;28;20034;-73
2022/12/31 06:04:22;;;;;;;0.95;0.30;;;15.80;99.90;;;;;;5097744;28;20028;-73
2022/12/31 06:06:48;;;;;;;0.47;0.30;;;15.70;99.90;;;;;;5115473;28;20032;-73
2022/12/31 06:09:17;;;;;;;0.40;0.30;;;15.70;99.90;;;;;;5115987;28;20066;-73
2022/12/31 06:11:44;;;;;;;1.15;0.30;;;15.70;99.90;;;;;;5097085;28;20517;-72
2022/12/31 06:14:10;;;;;;;0.88;0.40;;;15.70;99.90;;;;;;5116474;28;20031;-73
2022/12/31 06:16:36;;;;;;;0.52;0.25;;;15.60;99.90;;;;;;5097226;28;20048;-73
2022/12/31 06:19:01;;;;;;;0.60;0.20;;;15.60;99.90;;;;;;5097592;28;20038;-73
2022/12/31 06:21:28;;;;;;;0.35;0.35;;;15.60;99.90;;;;;;5097427;28;20027;-72
2022/12/31 06:23:53;;;;;;;0.82;0.40;;;15.50;99.90;;;;;;5096855;28;20030;-73
2022/12/31 06:26:19;;;;;;;2.28;0.30;;;15.50;99.90;;;;;;5097202;28;20028;-73
2022/12/31 06:28:45;;;;;;;0.50;0.50;;;15.40;99.90;;;;;;5115347;28;20468;-73
2022/12/31 06:31:12;;;;;;;1.85;0.70;;;15.40;99.90;;;;;;5097258;28;20024;-73
2022/12/31 06:33:38;;;;;;;0.60;0.40;;;15.40;99.90;;;;;;5096748;28;20024;-73
2022/12/31 06:36:06;;;;;;;0.68;0.43;;;15.40;99.90;;;;;;5115340;28;20032;-73
2022/12/31 06:38:33;;;;;;;0.30;0.30;;;15.40;99.90;;;;;;5096956;28;20027;-73
2022/12/31 06:41:07;;;;;;;1.42;0.50;;;15.40;99.90;;;;;;5097125;28;20161;-73
2022/12/31 06:43:34;;;;;;;0.93;0.40;;;15.40;99.90;;;;;;5114496;28;20031;-73
2022/12/31 06:46:03;;;;;;;0.65;0.50;;;15.40;99.90;;;;;;5096850;28;20027;-73
2022/12/31 06:48:29;;;;;;;0.73;0.47;;;15.40;99.90;;;;;;5096889;28;20031;-73
2022/12/31 06:50:54;;;;;;;1.50;0.43;;;15.40;99.90;;;;;;5114612;28;20032;-73
2022/12/31 06:53:20;;;;;;;1.23;0.40;;;15.50;99.90;;;;;;5096706;28;20464;-73
2022/12/31 06:55:48;;;;;;;0.50;0.50;;;15.50;99.90;;;;;;5114792;28;20036;-73
2022/12/31 06:58:15;;;;;;;0.93;0.40;;;15.50;99.90;;;;;;5114551;28;20038;-73
2022/12/31 07:00:59;;;;;;;2.35;0.60;;;15.60;99.90;;;;;;5096185;28;20057;-73
2022/12/31 07:03:50;;;;;;;0.55;0.40;;;15.60;99.90;;;;;;5114743;28;20472;-73
2022/12/31 07:06:32;;;;;;;0.40;0.40;;;15.60;99.90;;;;;;5114602;28;20380;-73
2022/12/31 07:09:09;;;;;;;0.32;0.32;;;15.60;99.90;;;;;;5113920;28;20447;-73
2022/12/31 07:11:50;;;;;;;0.82;0.40;;;15.60;99.90;;;;;;5114742;28;20035;-73
2022/12/31 07:14:28;;;;;;;0.30;0.30;;;15.50;99.90;;;;;;5096496;28;20047;-73
2022/12/31 07:17:15;;;;;;;1.48;0.30;;;15.50;99.90;;;;;;5114116;28;20476;-73
2022/12/31 07:20:01;;;;;;;1.35;0.50;;;15.60;99.90;;;;;;5114070;28;20059;-73
2022/12/31 07:22:27;;;;;;;0.45;0.30;;;15.60;99.90;;;;;;5114442;28;20042;-73
2022/12/31 07:24:53;;;;;;;1.52;0.35;;;15.60;99.90;;;;;;5095630;28;20465;-73
2022/12/31 07:27:34;;;;;;;1.02;0.40;;;15.60;99.90;;;;;;5095782;28;20502;-73
2022/12/31 07:30:00;;;;;;;1.30;0.52;;;15.60;99.90;;;;;;5095560;28;20043;-73
2022/12/31 07:32:43;;;;;;;0.68;0.60;;;15.60;99.90;;;;;;5096171;28;20028;-72
2022/12/31 07:35:40;;;;;;;0.60;0.40;;;15.50;99.90;;;;;;5096175;28;20027;-73
2022/12/31 07:38:05;;;;;;;0.80;0.40;;;15.60;99.90;;;;;;5095939;28;20088;-73
2022/12/31 07:40:43;;;;;;;0.70;0.40;;;15.60;99.90;;;;;;5095904;28;20036;-73
2022/12/31 07:43:13;;;;;;;1.27;0.40;;;15.60;99.90;;;;;;5114175;28;20027;-73
2022/12/31 07:46:01;;;;;;;0.40;0.40;;;15.50;99.90;;;;;;5113239;28;20380;-73
2022/12/31 07:48:28;;;;;;;2.55;0.63;;;15.60;99.90;;;;;;5095811;28;20104;-73
2022/12/31 07:50:55;;;;;;;0.85;0.45;;;15.60;99.90;;;;;;5095205;28;20349;-73
2022/12/31 07:53:22;;;;;;;0.40;0.30;;;15.60;99.90;;;;;;5113924;28;20028;-73
2022/12/31 07:55:58;;;;;;;0.63;0.40;;;15.60;99.90;;;;;;5094261;28;20058;-73
2022/12/31 07:58:38;;;;;;;0.50;0.30;;;15.60;99.90;;;;;;5095647;28;20028;-73
2022/12/31 08:01:06;;;;;;;0.63;0.30;;;15.60;99.90;;;;;;5095483;28;20537;-73
2022/12/31 08:03:58;;;;;;;1.15;0.63;;;15.60;99.90;;;;;;5095423;28;20028;-73
2022/12/31 08:06:31;;;;;;;1.70;0.40;;;15.60;99.90;;;;;;5113525;28;20030;-73
2022/12/31 08:09:02;;;;;;;0.65;0.40;;;15.70;99.90;;;;;;5113197;28;20028;-73
2022/12/31 08:11:39;;;;;;;0.88;0.50;;;15.70;99.90;;;;;;5095433;28;20165;-73
2022/12/31 08:14:09;;;;;;;0.77;0.40;;;15.60;99.90;;;;;;5113865;28;20106;-73
2022/12/31 08:16:35;;;;;;;0.75;0.50;;;15.70;99.90;;;;;;5091637;28;20056;-73
2022/12/31 08:19:00;;;;;;;0.63;0.50;;;15.70;99.90;;;;;;5091177;28;20036;-73
2022/12/31 08:21:52;;;;;;;1.27;0.50;;;15.80;99.90;;;;;;5091996;28;20060;-73
2022/12/31 08:24:20;;;;;;;0.73;0.50;;;15.80;99.90;;;;;;5091908;28;20385;-74
2022/12/31 08:26:52;;;;;;;1.60;0.40;;;15.90;99.90;;;;;;5092393;28;20028;-73
2022/12/31 08:29:17;;;;;;;1.58;0.50;;;15.90;99.90;;;;;;5091775;28;20032;-73
2022/12/31 08:31:54;;;;;;;3.63;0.40;;;16.00;99.90;;;;;;5092287;28;20051;-73
2022/12/31 08:34:57;;;;;;;0.73;0.40;;;16.00;99.90;;;;;;5091965;28;20134;-73
2022/12/31 08:37:37;;;;;;;2.75;0.50;;;16.10;99.90;;;;;;5091765;28;20373;-73
2022/12/31 08:40:12;;;;;;;1.02;0.55;;;16.10;99.90;;;;;;5091116;28;20028;-73
2022/12/31 08:42:46;;;;;;;0.93;0.55;;;16.10;99.90;;;;;;5092874;28;20028;-73
2022/12/31 08:45:36;;;;;;;0.43;0.40;;;16.10;99.90;;;;;;5091615;28;20031;-73
2022/12/31 08:48:31;;;;;;;3.72;0.70;;;16.10;99.90;;;;;;5091050;28;20472;-73
2022/12/31 08:50:57;;;;;;;1.35;0.65;;;16.20;99.90;;;;;;5083532;28;20036;-73
2022/12/31 08:53:23;;;;;;;1.27;0.60;;;16.20;99.90;;;;;;5091435;28;20028;-73
2022/12/31 08:55:55;;;;;;;0.93;0.40;;;16.20;99.90;;;;;;5092266;28;20103;-74
2022/12/31 08:58:56;;;;;;;1.75;0.68;;;16.30;99.90;;;;;;5091129;28;20039;-73
2022/12/31 09:01:26;;;;;;;1.13;0.50;;;16.40;99.90;;;;;;5013610;28;20043;-73
2022/12/31 09:04:04;;;;;;;0.93;0.40;;;16.40;99.90;;;;;;5076518;28;20028;-74
2022/12/31 09:06:40;;;;;;;2.42;0.60;;;16.50;99.90;;;;;;5092810;28;20035;-73
2022/12/31 09:09:32;;;;;;;2.25;0.60;;;16.50;99.90;;;;;;5094951;28;20070;-74
2022/12/31 09:12:30;;;;;;;2.58;0.43;;;16.60;99.90;;;;;;5094950;28;20024;-74
2022/12/31 09:15:21;;;;;;;0.40;0.40;;;16.60;99.90;;;;;;5094928;28;20055;-74
2022/12/31 09:17:49;;;;;;;5.00;0.70;;;16.60;99.90;;;;;;5115845;28;20047;-74
2022/12/31 09:20:34;;;;;;;0.65;0.50;;;16.70;99.90;;;;;;5098534;28;20036;-74
2022/12/31 09:23:02;;;;;;;1.42;0.60;;;16.70;99.90;;;;;;5098120;28;20034;-74
2022/12/31 09:25:29;;;;;;;1.60;0.50;;;16.70;99.90;;;;;;5098582;28;20023;-74
2022/12/31 09:28:16;;;;;;;0.40;0.40;;;16.70;99.90;;;;;;5097708;28;20027;-73
2022/12/31 09:31:12;;;;;;;0.93;0.38;;;16.80;99.90;;;;;;5098535;28;20174;-74
2022/12/31 09:33:56;;;;;;;0.55;0.50;;;16.80;99.90;;;;;;5116667;28;20024;-74
2022/12/31 09:36:31;;;;;;;1.05;0.50;;;16.90;99.90;;;;;;5098507;28;20030;-74
2022/12/31 09:39:24;;;;;;;4.35;0.65;;;16.90;99.90;;;;;;5097732;28;20532;-74
2022/12/31 09:42:16;;;;;;;2.38;0.40;;;16.90;99.90;;;;;;5097480;28;20027;-74
2022/12/31 09:45:01;;;;;;;;;;;16.90;99.90;;;;;;5098655;28;20485;-74
2022/12/31 09:47:32;;;;;;;0.65;0.30;;;16.90;99.90;;;;;;5098080;28;19927;-74
2022/12/31 09:50:36;;;;;;;1.20;0.47;;;16.90;99.90;;;;;;5115882;28;20028;-74
2022/12/31 09:53:20;;;;;;;1.38;0.50;;;16.90;99.90;;;;;;5097360;28;20464;-74
2022/12/31 09:55:55;;;;;;;1.10;0.30;;;16.90;99.90;;;;;;5097351;28;20114;-75
2022/12/31 09:58:23;;;;;;;0.50;0.38;;;16.90;99.90;;;;;;5097912;28;20124;-73
2022/12/31 10:01:12;;;;;;;1.42;0.40;;;16.90;99.90;;;;;;5115237;28;20500;-74
2022/12/31 10:03:56;;;;;;;0.80;0.40;;;17.00;99.90;;;;;;5097857;28;20036;-74
2022/12/31 10:06:38;;;;;;;0.30;0.30;;;17.10;99.90;;;;;;5097718;28;20487;-74
2022/12/31 10:09:23;;;;;;;0.52;0.38;;;17.00;99.90;;;;;;5115709;28;20118;-73
2022/12/31 10:12:10;;;;;;;0.65;0.40;;;17.10;99.90;;;;;;5097282;28;20020;-74
2022/12/31 10:15:01;;;;;;;0.70;0.40;;;17.20;99.90;;;;;;5097439;28;20031;-74
2022/12/31 10:17:53;;;;;;;0.63;0.43;;;17.20;99.90;;;;;;5115305;28;20051;-74
2022/12/31 10:20:42;;;;;;;0.35;0.32;;;17.20;99.90;;;;;;5097341;28;20035;-73
2022/12/31 10:23:37;;;;;;;0.90;0.60;;;17.30;99.90;;;;;;5096848;28;20116;-73
2022/12/31 10:26:22;;;;;;;1.02;0.60;;;17.30;99.90;;;;;;5096833;28;20468;-73
2022/12/31 10:29:30;;;;;;;0.77;0.43;;;17.40;99.90;;;;;;5096882;28;20062;-78
2022/12/31 10:32:18;;;;;;;1.13;0.32;;;17.40;99.90;;;;;;5101155;28;20040;-73
2022/12/31 10:34:53;;;;;;;2.25;0.45;;;17.40;99.90;;;;;;5097320;28;20457;-73
2022/12/31 10:37:26;;;;;;;1.05;0.35;;;17.50;99.90;;;;;;5115474;28;20077;-73
2022/12/31 10:40:03;;;;;;;2.03;0.40;;;17.50;99.90;;;;;;5096616;28;20023;-74
2022/12/31 10:43:06;;;;;;;0.47;0.30;;;17.50;99.90;;;;;;5115375;28;20525;-75
2022/12/31 10:46:07;;;;;;;0.75;0.50;;;17.60;99.90;;;;;;5096860;28;20043;-74
2022/12/31 10:48:56;;;;;;;1.85;0.30;;;17.60;99.90;;;;;;5091900;28;20073;-73
2022/12/31 10:51:44;;;;;;;1.77;0.40;;;17.70;99.90;;;;;;5096991;28;20538;-74
2022/12/31 10:54:28;;;;;;;1.63;0.43;;;17.70;99.90;;;;;;5114653;28;20088;-74
2022/12/31 10:57:55;;;;;;;0.63;0.45;;;17.80;99.90;;;;;;5096155;28;20055;-74
2022/12/31 11:00:22;;;;;;;2.33;0.50;;;17.80;99.90;;;;;;5055171;28;20162;-74
2022/12/31 11:03:14;;;;;;;1.35;0.30;;;17.90;99.90;;;;;;5071932;28;20028;-73
2022/12/31 11:06:02;;;;;;;2.05;0.40;;;18.00;99.90;;;;;;5071923;28;20119;-74
2022/12/31 11:08:55;;;;;;;0.43;0.22;;;18.00;99.90;;;;;;5055244;28;20056;-74
2022/12/31 11:11:36;;;;;;;1.25;0.50;;;18.10;99.90;;;;;;5054987;28;20044;-74
2022/12/31 11:14:46;;;;;;;1.15;0.40;;;18.10;99.90;;;;;;5054513;28;20032;-74
2022/12/31 11:17:38;;;;;;;0.70;0.60;;;18.10;99.90;;;;;;5053993;28;20072;-74
2022/12/31 11:20:25;;;;;;;3.15;0.40;;;18.20;99.90;;;;;;5054303;28;20043;-73
2022/12/31 11:23:21;;;;;;;0.47;0.30;;;18.30;99.90;;;;;;5054474;28;20040;-75
2022/12/31 11:26:04;;;;;;;0.75;0.55;;;18.30;99.90;;;;;;5054745;28;20036;-74
2022/12/31 11:28:44;;;;;;;0.20;0.20;;;18.40;99.90;;;;;;5054795;28;20032;-73
2022/12/31 11:31:16;;;;;;;0.43;0.40;;;18.40;99.90;;;;;;5075678;28;20054;-74
2022/12/31 11:33:50;;;;;;;1.08;0.30;;;18.40;99.90;;;;;;5095978;28;20111;-74
2022/12/31 11:36:42;;;;;;;0.55;0.40;;;18.50;99.90;;;;;;5114016;28;20024;-74
2022/12/31 11:39:28;;;;;;;0.65;0.40;;;18.50;99.90;;;;;;5113703;28;20174;-74
2022/12/31 11:42:10;;;;;;;0.85;0.55;;;18.50;99.90;;;;;;5113770;28;20103;-74
2022/12/31 11:44:51;;;;;;;1.67;0.50;;;18.60;99.90;;;;;;5113835;28;20073;-74
2022/12/31 11:47:38;;;;;;;0.75;0.40;;;18.60;99.90;;;;;;5095388;28;20122;-74
2022/12/31 11:50:22;;;;;;;1.52;0.25;;;18.60;99.90;;;;;;5113527;28;20072;-74
2022/12/31 11:53:03;;;;;;;0.80;0.60;;;18.70;99.90;;;;;;5095728;28;20024;-73
2022/12/31 11:55:39;;;;;;;1.17;0.65;;;18.70;99.90;;;;;;5095558;28;20465;-74
2022/12/31 11:58:16;;;;;;;0.70;0.40;;;18.80;99.90;;;;;;5113449;28;20039;-74
2022/12/31 12:01:15;;;;;;;0.77;0.47;;;18.80;99.90;;;;;;5095716;28;20027;-73
2022/12/31 12:03:42;;;;;;;0.63;0.43;;;18.90;99.90;;;;;;5062026;28;20036;-73
2022/12/31 12:06:14;;;;;;;0.57;0.30;;;18.90;99.90;;;;;;5113151;28;20024;-74
2022/12/31 12:08:40;;;;;;;0.45;0.30;;;19.00;99.90;;;;;;5095545;28;20028;-73
2022/12/31 12:11:17;;;;;;;1.27;0.30;;;19.10;99.90;;;;;;5094520;28;20032;-74
2022/12/31 12:13:43;;;;;;;0.70;0.45;;;19.20;99.90;;;;;;5095507;28;20073;-73
2022/12/31 12:16:09;;;;;;;1.83;0.32;;;19.30;99.90;;;;;;5112995;28;20091;-74
2022/12/31 12:18:50;;;;;;;0.77;0.30;;;19.40;99.90;;;;;;5113461;28;20031;-74
2022/12/31 12:21:24;;;;;;;0.73;0.20;;;19.40;99.90;;;;;;5094727;28;20028;-73
2022/12/31 12:24:26;;;;;;;0.85;0.45;;;19.50;99.90;;;;;;5095226;28;20032;-74
2022/12/31 12:26:52;;;;;;;0.55;0.30;;;19.50;99.90;;;;;;5095032;28;20481;-74
2022/12/31 12:29:21;;;;;;;0.60;0.30;;;19.60;99.90;;;;;;5112570;28;20035;-73
2022/12/31 12:32:14;;;;;;;1.75;0.50;;;19.60;99.90;;;;;;5095327;28;20020;-73
2022/12/31 12:34:40;;;;;;;0.93;0.50;;;19.50;99.90;;;;;;5095042;28;20023;-73
2022/12/31 12:37:24;;;;;;;0.40;0.32;;;19.50;99.90;;;;;;5094519;28;20094;-75
2022/12/31 12:40:02;;;;;;;0.30;0.28;;;19.50;99.90;;;;;;5113013;28;20172;-74
2022/12/31 12:42:28;;;;;;;0.77;0.38;;;19.50;99.90;;;;;;5094819;28;20035;-73
2022/12/31 12:45:15;;;;;;;0.65;0.40;;;19.50;99.90;;;;;;5113183;28;20047;-73
2022/12/31 12:47:42;;;;;;;0.45;0.38;;;19.50;99.90;;;;;;5095045;28;20118;-73
2022/12/31 12:50:16;;;;;;;0.80;0.30;;;19.50;99.90;;;;;;5112767;28;20023;-74
2022/12/31 12:52:47;;;;;;;1.27;0.38;;;19.40;99.90;;;;;;5112972;28;20028;-74
2022/12/31 12:55:23;;;;;;;;;;;19.40;99.90;;;;;;5113082;28;20019;-73
2022/12/31 12:57:51;;;;;;;1.08;0.30;;;19.40;99.90;;;;;;5113197;28;20011;-73
2022/12/31 13:00:23;;;;;;;0.40;0.30;;;19.40;99.90;;;;;;5094256;28;20388;-74
2022/12/31 13:03:04;;;;;;;0.85;0.30;;;19.40;99.90;;;;;;5094916;28;20035;-73
2022/12/31 13:05:36;;;;;;;1.10;0.50;;;19.30;99.90;;;;;;5113178;28;20028;-73
2022/12/31 13:08:35;;;;;;;0.95;0.30;;;19.30;99.90;;;;;;5094490;28;20031;-73
2022/12/31 13:11:10;;;;;;;0.40;0.35;;;19.30;99.90;;;;;;5094237;28;20032;-74
2022/12/31 13:13:47;;;;;;;0.57;0.40;;;19.30;99.90;;;;;;5113116;28;20051;-73
2022/12/31 13:16:25;;;;;;;0.50;0.20;;;19.20;99.90;;;;;;5094109;28;20502;-74
2022/12/31 13:19:15;;;;;;;0.55;0.30;;;19.30;99.90;;;;;;5112837;28;20115;-73
2022/12/31 13:21:45;;;;;;;0.80;0.35;;;19.30;99.90;;;;;;5112579;28;20102;-73
2022/12/31 13:24:45;;;;;;;0.30;0.30;;;19.30;99.90;;;;;;5112283;28;20032;-73
2022/12/31 13:27:27;;;;;;;0.95;0.40;;;19.30;99.90;;;;;;5112456;28;20070;-74
2022/12/31 13:29:58;;;;;;;1.73;0.40;;;19.30;99.90;;;;;;5094616;28;20031;-73
2022/12/31 13:32:41;;;;;;;0.50;0.30;;;19.20;99.90;;;;;;5094612;28;20028;-73
2022/12/31 13:35:29;;;;;;;0.55;0.45;;;19.30;99.90;;;;;;5094152;28;20030;-74